sensor_id;sensor_type;location;lat;lon;timestamp;pressure;altitude;pressure_sealevel;temperature;humidity
50774;BME280;36745;48.544;8.918;2022-07-29T00:01:22;97204.72;;;18.53;79.67
50774;BME280;36745;48.544;8.918;2022-07-29T00:04:23;97203.66;;;18.45;80.09
50774;BME280;36745;48.544;8.918;2022-07-29T00:07:23;97204.41;;;18.45;80.41
50774;BME280;36745;48.544;8.918;2022-07-29T00:10:24;97198.28;;;18.41;80.65
50774;BME280;36745;48.544;8.918;2022-07-29T00:13:24;97205.88;;;18.35;80.95
50774;BME280;36745;48.544;8.918;2022-07-29T00:16:25;97208.16;;;18.31;80.63
50774;BME280;36745;48.544;8.918;2022-07-29T00:19:25;97202.53;;;18.25;81.53
50774;BME280;36745;48.544;8.918;2022-07-29T00:22:26;97202.22;;;18.18;82.08
50774;BME280;36745;48.544;8.918;2022-07-29T00:25:26;97204.28;;;18.23;80.93
50774;BME280;36745;48.544;8.918;2022-07-29T00:28:27;97198.63;;;18.12;81.08
50774;BME280;36745;48.544;8.918;2022-07-29T00:31:27;97204.94;;;18.01;82.77
50774;BME280;36745;48.544;8.918;2022-07-29T00:34:28;97188.72;;;18.05;82.23
50774;BME280;36745;48.544;8.918;2022-07-29T00:37:47;97192.81;;;18.10;81.55
50774;BME280;36745;48.544;8.918;2022-07-29T00:40:47;97188.41;;;17.98;82.82
50774;BME280;36745;48.544;8.918;2022-07-29T00:43:48;97189.69;;;17.97;82.35
50774;BME280;36745;48.544;8.918;2022-07-29T00:46:48;97189.44;;;17.95;82.06
50774;BME280;36745;48.544;8.918;2022-07-29T00:49:49;97183.53;;;17.87;81.73
50774;BME280;36745;48.544;8.918;2022-07-29T00:52:50;97179.63;;;17.73;83.19
50774;BME280;36745;48.544;8.918;2022-07-29T00:55:53;97172.53;;;17.72;82.81
50774;BME280;36745;48.544;8.918;2022-07-29T00:58:56;97173.06;;;17.76;83.14
50774;BME280;36745;48.544;8.918;2022-07-29T01:01:57;97175.06;;;17.70;82.50
50774;BME280;36745;48.544;8.918;2022-07-29T01:04:57;97165.78;;;17.53;82.57
50774;BME280;36745;48.544;8.918;2022-07-29T01:07:58;97162.94;;;17.48;83.65
50774;BME280;36745;48.544;8.918;2022-07-29T01:11:00;97166.50;;;17.48;82.98
50774;BME280;36745;48.544;8.918;2022-07-29T01:14:02;97164.44;;;17.43;83.04
50774;BME280;36745;48.544;8.918;2022-07-29T01:17:11;97159.03;;;17.34;83.08
50774;BME280;36745;48.544;8.918;2022-07-29T01:20:14;97154.91;;;17.24;83.37
50774;BME280;36745;48.544;8.918;2022-07-29T01:29:45;97153.47;;;17.02;83.81
50774;BME280;36745;48.544;8.918;2022-07-29T01:32:56;97158.22;;;16.96;85.04
50774;BME280;36745;48.544;8.918;2022-07-29T01:36:01;97151.22;;;17.07;84.13
50774;BME280;36745;48.544;8.918;2022-07-29T01:39:31;97147.59;;;17.00;84.51
50774;BME280;36745;48.544;8.918;2022-07-29T01:42:39;97144.00;;;16.94;84.68
50774;BME280;36745;48.544;8.918;2022-07-29T01:45:48;97143.47;;;16.90;84.94
50774;BME280;36745;48.544;8.918;2022-07-29T01:48:58;97147.78;;;16.91;84.51
50774;BME280;36745;48.544;8.918;2022-07-29T01:52:11;97142.94;;;16.86;84.24
50774;BME280;36745;48.544;8.918;2022-07-29T01:55:15;97139.75;;;16.73;84.88
50774;BME280;36745;48.544;8.918;2022-07-29T01:58:17;97146.75;;;16.63;85.06
50774;BME280;36745;48.544;8.918;2022-07-29T02:01:20;97135.03;;;16.59;85.49
50774;BME280;36745;48.544;8.918;2022-07-29T02:04:22;97143.13;;;16.57;86.29
50774;BME280;36745;48.544;8.918;2022-07-29T02:07:25;97145.22;;;16.62;85.62
50774;BME280;36745;48.544;8.918;2022-07-29T02:10:30;97148.84;;;16.68;85.44
50774;BME280;36745;48.544;8.918;2022-07-29T02:13:31;97137.34;;;16.60;85.10
50774;BME280;36745;48.544;8.918;2022-07-29T02:16:35;97148.91;;;16.53;85.50
50774;BME280;36745;48.544;8.918;2022-07-29T02:19:38;97142.06;;;16.54;85.26
50774;BME280;36745;48.544;8.918;2022-07-29T02:22:40;97131.63;;;16.49;85.23
50774;BME280;36745;48.544;8.918;2022-07-29T02:25:42;97143.16;;;16.37;85.69
50774;BME280;36745;48.544;8.918;2022-07-29T02:28:43;97149.44;;;16.32;86.14
50774;BME280;36745;48.544;8.918;2022-07-29T02:31:45;97145.81;;;16.26;86.24
50774;BME280;36745;48.544;8.918;2022-07-29T02:34:48;97139.25;;;16.29;86.85
50774;BME280;36745;48.544;8.918;2022-07-29T02:37:51;97138.28;;;16.32;86.53
50774;BME280;36745;48.544;8.918;2022-07-29T02:41:13;97139.47;;;16.25;87.04
50774;BME280;36745;48.544;8.918;2022-07-29T02:44:18;97139.81;;;16.33;85.81
50774;BME280;36745;48.544;8.918;2022-07-29T02:47:31;97128.56;;;16.22;86.37
50774;BME280;36745;48.544;8.918;2022-07-29T02:50:37;97134.13;;;16.22;86.93
50774;BME280;36745;48.544;8.918;2022-07-29T02:53:41;97124.50;;;16.23;86.64
50774;BME280;36745;48.544;8.918;2022-07-29T02:56:45;97128.97;;;16.14;86.81
50774;BME280;36745;48.544;8.918;2022-07-29T02:59:48;97131.91;;;16.05;86.48
50774;BME280;36745;48.544;8.918;2022-07-29T03:02:52;97147.50;;;15.97;87.03
50774;BME280;36745;48.544;8.918;2022-07-29T03:05:59;97137.06;;;15.92;86.48
50774;BME280;36745;48.544;8.918;2022-07-29T03:09:01;97141.22;;;15.82;86.97
50774;BME280;36745;48.544;8.918;2022-07-29T03:12:03;97146.38;;;15.89;87.45
50774;BME280;36745;48.544;8.918;2022-07-29T03:15:04;97144.41;;;15.95;87.64
50774;BME280;36745;48.544;8.918;2022-07-29T03:18:06;97142.47;;;16.01;87.02
50774;BME280;36745;48.544;8.918;2022-07-29T03:21:08;97143.88;;;15.91;86.98
50774;BME280;36745;48.544;8.918;2022-07-29T03:24:08;97141.78;;;15.86;87.28
50774;BME280;36745;48.544;8.918;2022-07-29T03:27:09;97143.09;;;15.91;86.73
50774;BME280;36745;48.544;8.918;2022-07-29T03:30:10;97140.13;;;15.94;87.02
50774;BME280;36745;48.544;8.918;2022-07-29T03:33:11;97140.25;;;15.85;86.76
50774;BME280;36745;48.544;8.918;2022-07-29T03:36:12;97129.53;;;15.78;87.23
50774;BME280;36745;48.544;8.918;2022-07-29T03:39:18;97133.09;;;15.78;87.17
50774;BME280;36745;48.544;8.918;2022-07-29T03:42:24;97138.59;;;15.73;86.82
50774;BME280;36745;48.544;8.918;2022-07-29T03:45:26;97136.28;;;15.71;86.50
50774;BME280;36745;48.544;8.918;2022-07-29T03:48:31;97140.34;;;15.56;87.00
50774;BME280;36745;48.544;8.918;2022-07-29T03:51:33;97145.91;;;15.56;87.21
50774;BME280;36745;48.544;8.918;2022-07-29T03:54:34;97137.66;;;15.61;87.63
50774;BME280;36745;48.544;8.918;2022-07-29T03:57:35;97144.00;;;15.62;87.18
50774;BME280;36745;48.544;8.918;2022-07-29T04:00:36;97147.03;;;15.64;87.01
50774;BME280;36745;48.544;8.918;2022-07-29T04:03:38;97151.72;;;15.58;87.27
50774;BME280;36745;48.544;8.918;2022-07-29T04:06:43;97149.38;;;15.51;87.23
50774;BME280;36745;48.544;8.918;2022-07-29T04:09:44;97151.09;;;15.48;87.35
50774;BME280;36745;48.544;8.918;2022-07-29T04:12:45;97145.75;;;15.45;87.35
50774;BME280;36745;48.544;8.918;2022-07-29T04:15:45;97145.19;;;15.41;88.19
50774;BME280;36745;48.544;8.918;2022-07-29T04:18:45;97147.28;;;15.46;87.88
50774;BME280;36745;48.544;8.918;2022-07-29T04:21:46;97145.34;;;15.52;87.32
50774;BME280;36745;48.544;8.918;2022-07-29T04:24:46;97147.44;;;15.42;87.80
50774;BME280;36745;48.544;8.918;2022-07-29T04:27:47;97147.97;;;15.41;87.62
50774;BME280;36745;48.544;8.918;2022-07-29T04:31:03;97148.34;;;15.33;87.72
50774;BME280;36745;48.544;8.918;2022-07-29T04:34:03;97145.00;;;15.29;87.75
50774;BME280;36745;48.544;8.918;2022-07-29T04:37:03;97150.16;;;15.36;87.16
50774;BME280;36745;48.544;8.918;2022-07-29T04:40:04;97146.50;;;15.30;87.54
50774;BME280;36745;48.544;8.918;2022-07-29T04:43:05;97142.31;;;15.35;87.56
50774;BME280;36745;48.544;8.918;2022-07-29T04:46:06;97149.88;;;15.34;88.29
50774;BME280;36745;48.544;8.918;2022-07-29T04:49:07;97144.19;;;15.44;88.16
50774;BME280;36745;48.544;8.918;2022-07-29T04:52:07;97144.38;;;15.55;88.79
50774;BME280;36745;48.544;8.918;2022-07-29T04:55:08;97142.94;;;15.79;88.77
50774;BME280;36745;48.544;8.918;2022-07-29T04:58:09;97150.09;;;16.47;88.76
50774;BME280;36745;48.544;8.918;2022-07-29T05:01:10;97155.34;;;17.17;88.42
50774;BME280;36745;48.544;8.918;2022-07-29T05:04:10;97154.44;;;17.31;86.77
50774;BME280;36745;48.544;8.918;2022-07-29T05:07:10;97156.31;;;17.76;87.59
50774;BME280;36745;48.544;8.918;2022-07-29T05:10:11;97159.88;;;18.31;87.33
50774;BME280;36745;48.544;8.918;2022-07-29T05:13:11;97161.00;;;18.61;86.70
50774;BME280;36745;48.544;8.918;2022-07-29T05:16:13;97156.16;;;18.61;85.25
50774;BME280;36745;48.544;8.918;2022-07-29T05:19:13;97168.16;;;18.79;85.49
50774;BME280;36745;48.544;8.918;2022-07-29T05:22:14;97173.28;;;18.91;84.90
50774;BME280;36745;48.544;8.918;2022-07-29T05:25:14;97170.47;;;19.19;84.20
50774;BME280;36745;48.544;8.918;2022-07-29T05:28:15;97170.50;;;19.30;83.59
50774;BME280;36745;48.544;8.918;2022-07-29T05:31:15;97171.78;;;19.46;83.70
50774;BME280;36745;48.544;8.918;2022-07-29T05:34:16;97171.72;;;19.85;83.79
50774;BME280;36745;48.544;8.918;2022-07-29T05:37:20;97176.06;;;19.86;82.50
50774;BME280;36745;48.544;8.918;2022-07-29T05:40:20;97172.03;;;19.53;81.53
50774;BME280;36745;48.544;8.918;2022-07-29T05:43:21;97178.16;;;19.35;81.81
50774;BME280;36745;48.544;8.918;2022-07-29T05:46:21;97176.66;;;19.45;82.17
50774;BME280;36745;48.544;8.918;2022-07-29T05:49:22;97188.03;;;19.20;80.79
50774;BME280;36745;48.544;8.918;2022-07-29T05:52:22;97185.97;;;18.92;81.23
50774;BME280;36745;48.544;8.918;2022-07-29T05:55:23;97189.81;;;18.95;82.06
50774;BME280;36745;48.544;8.918;2022-07-29T05:58:23;97186.22;;;18.89;82.95
50774;BME280;36745;48.544;8.918;2022-07-29T06:01:24;97195.94;;;19.27;83.88
50774;BME280;36745;48.544;8.918;2022-07-29T06:04:24;97190.38;;;19.55;83.20
50774;BME280;36745;48.544;8.918;2022-07-29T06:07:24;97196.69;;;19.88;83.50
50774;BME280;36745;48.544;8.918;2022-07-29T06:10:25;97190.00;;;20.19;83.13
50774;BME280;36745;48.544;8.918;2022-07-29T06:13:26;97194.81;;;20.35;82.43
50774;BME280;36745;48.544;8.918;2022-07-29T06:16:28;97201.34;;;20.55;82.30
50774;BME280;36745;48.544;8.918;2022-07-29T06:19:29;97196.19;;;20.70;81.24
50774;BME280;36745;48.544;8.918;2022-07-29T06:22:29;97202.31;;;20.68;80.78
50774;BME280;36745;48.544;8.918;2022-07-29T06:25:30;97202.31;;;20.68;80.05
50774;BME280;36745;48.544;8.918;2022-07-29T06:28:32;97199.69;;;20.76;80.01
50774;BME280;36745;48.544;8.918;2022-07-29T06:31:33;97193.28;;;20.81;80.04
50774;BME280;36745;48.544;8.918;2022-07-29T06:34:38;97188.41;;;20.87;79.93
50774;BME280;36745;48.544;8.918;2022-07-29T06:37:39;97198.63;;;20.90;78.70
50774;BME280;36745;48.544;8.918;2022-07-29T06:40:43;97196.25;;;21.05;79.25
50774;BME280;36745;48.544;8.918;2022-07-29T06:44:02;97194.75;;;20.99;78.85
50774;BME280;36745;48.544;8.918;2022-07-29T06:47:04;97203.75;;;20.86;77.91
50774;BME280;36745;48.544;8.918;2022-07-29T06:50:05;97205.88;;;20.69;78.24
50774;BME280;36745;48.544;8.918;2022-07-29T06:53:06;97203.91;;;20.53;78.29
50774;BME280;36745;48.544;8.918;2022-07-29T06:56:07;97207.72;;;20.55;78.61
50774;BME280;36745;48.544;8.918;2022-07-29T06:59:11;97210.97;;;20.65;79.24
50774;BME280;36745;48.544;8.918;2022-07-29T07:02:12;97213.44;;;20.85;78.99
50774;BME280;36745;48.544;8.918;2022-07-29T07:05:12;97219.53;;;20.89;78.54
50774;BME280;36745;48.544;8.918;2022-07-29T07:08:13;97213.44;;;20.85;78.18
50774;BME280;36745;48.544;8.918;2022-07-29T07:11:13;97212.38;;;20.88;78.53
50774;BME280;36745;48.544;8.918;2022-07-29T07:14:14;97234.84;;;20.88;78.08
50774;BME280;36745;48.544;8.918;2022-07-29T07:17:14;97223.59;;;20.99;78.69
50774;BME280;36745;48.544;8.918;2022-07-29T07:20:15;97225.06;;;21.11;78.13
50774;BME280;36745;48.544;8.918;2022-07-29T07:23:16;97220.47;;;21.08;77.81
50774;BME280;36745;48.544;8.918;2022-07-29T07:26:16;97234.78;;;21.05;77.92
50774;BME280;36745;48.544;8.918;2022-07-29T07:29:17;97225.59;;;21.04;77.57
50774;BME280;36745;48.544;8.918;2022-07-29T07:32:17;97222.97;;;21.17;78.19
50774;BME280;36745;48.544;8.918;2022-07-29T07:35:17;97224.31;;;21.41;78.02
50774;BME280;36745;48.544;8.918;2022-07-29T07:38:18;97224.22;;;21.52;77.43
50774;BME280;36745;48.544;8.918;2022-07-29T07:41:18;97227.59;;;21.80;78.00
50774;BME280;36745;48.544;8.918;2022-07-29T07:44:19;97220.44;;;22.09;77.67
50774;BME280;36745;48.544;8.918;2022-07-29T07:47:19;97218.31;;;22.15;76.47
50774;BME280;36745;48.544;8.918;2022-07-29T07:50:20;97218.84;;;22.14;75.87
50774;BME280;36745;48.544;8.918;2022-07-29T07:53:20;97218.66;;;22.06;74.35
50774;BME280;36745;48.544;8.918;2022-07-29T07:56:21;97220.69;;;21.81;73.64
50774;BME280;36745;48.544;8.918;2022-07-29T07:59:21;97223.81;;;21.78;74.83
50774;BME280;36745;48.544;8.918;2022-07-29T08:02:21;97220.94;;;21.83;74.56
50774;BME280;36745;48.544;8.918;2022-07-29T08:05:22;97220.94;;;21.83;74.41
50774;BME280;36745;48.544;8.918;2022-07-29T08:08:22;97222.81;;;21.99;74.68
50774;BME280;36745;48.544;8.918;2022-07-29T08:11:23;97220.59;;;22.17;74.86
50774;BME280;36745;48.544;8.918;2022-07-29T08:14:23;97221.88;;;22.40;74.71
50774;BME280;36745;48.544;8.918;2022-07-29T08:17:24;97220.88;;;22.62;74.51
50774;BME280;36745;48.544;8.918;2022-07-29T08:20:24;97219.06;;;22.83;74.25
50774;BME280;36745;48.544;8.918;2022-07-29T08:23:25;97221.31;;;23.03;73.84
50774;BME280;36745;48.544;8.918;2022-07-29T08:26:27;97213.44;;;23.20;73.32
50774;BME280;36745;48.544;8.918;2022-07-29T08:29:27;97214.03;;;23.32;72.87
50774;BME280;36745;48.544;8.918;2022-07-29T08:32:28;97215.59;;;23.46;72.41
50774;BME280;36745;48.544;8.918;2022-07-29T08:35:28;97225.63;;;23.60;71.97
50774;BME280;36745;48.544;8.918;2022-07-29T08:38:29;97224.13;;;23.73;71.67
50774;BME280;36745;48.544;8.918;2022-07-29T08:41:35;97223.50;;;23.80;70.84
50774;BME280;36745;48.544;8.918;2022-07-29T08:44:36;97218.19;;;23.76;70.21
50774;BME280;36745;48.544;8.918;2022-07-29T08:47:39;97226.22;;;23.85;69.79
50774;BME280;36745;48.544;8.918;2022-07-29T08:50:41;97228.06;;;23.83;68.94
50774;BME280;36745;48.544;8.918;2022-07-29T08:53:43;97229.13;;;23.80;68.52
50774;BME280;36745;48.544;8.918;2022-07-29T08:56:45;97234.13;;;23.87;68.17
50774;BME280;36745;48.544;8.918;2022-07-29T08:59:50;97232.47;;;24.10;68.20
50774;BME280;36745;48.544;8.918;2022-07-29T09:02:57;97227.69;;;24.18;67.65
50774;BME280;36745;48.544;8.918;2022-07-29T09:06:02;97225.97;;;24.15;66.63
50774;BME280;36745;48.544;8.918;2022-07-29T09:09:02;97221.72;;;24.22;65.15
50774;BME280;36745;48.544;8.918;2022-07-29T09:12:04;97220.75;;;24.19;64.81
50774;BME280;36745;48.544;8.918;2022-07-29T09:15:06;97217.06;;;24.50;66.03
50774;BME280;36745;48.544;8.918;2022-07-29T09:18:06;97222.28;;;24.60;65.58
50774;BME280;36745;48.544;8.918;2022-07-29T09:21:09;97209.69;;;24.61;65.04
50774;BME280;36745;48.544;8.918;2022-07-29T09:27:34;97212.59;;;24.02;64.16
50774;BME280;36745;48.544;8.918;2022-07-29T09:30:49;97216.28;;;23.97;63.37
50774;BME280;36745;48.544;8.918;2022-07-29T09:33:50;97224.03;;;24.10;63.92
50774;BME280;36745;48.544;8.918;2022-07-29T09:36:53;97221.59;;;24.01;62.95
50774;BME280;36745;48.544;8.918;2022-07-29T09:39:54;97212.66;;;23.84;62.50
50774;BME280;36745;48.544;8.918;2022-07-29T09:42:55;97214.16;;;23.85;61.70
50774;BME280;36745;48.544;8.918;2022-07-29T09:46:10;97206.44;;;24.04;62.52
50774;BME280;36745;48.544;8.918;2022-07-29T09:49:12;97205.56;;;24.09;61.20
50774;BME280;36745;48.544;8.918;2022-07-29T09:52:14;97190.25;;;24.18;60.99
50774;BME280;36745;48.544;8.918;2022-07-29T09:55:15;97194.38;;;24.43;61.14
50774;BME280;36745;48.544;8.918;2022-07-29T09:58:20;97194.28;;;24.62;60.88
50774;BME280;36745;48.544;8.918;2022-07-29T10:01:27;97192.53;;;24.72;60.35
50774;BME280;36745;48.544;8.918;2022-07-29T10:04:42;97196.16;;;24.93;60.33
50774;BME280;36745;48.544;8.918;2022-07-29T10:07:50;97187.31;;;25.10;59.52
50774;BME280;36745;48.544;8.918;2022-07-29T10:10:51;97186.66;;;25.17;59.02
50774;BME280;36745;48.544;8.918;2022-07-29T10:13:51;97174.59;;;25.16;57.71
50774;BME280;36745;48.544;8.918;2022-07-29T10:16:52;97185.38;;;25.05;57.38
50774;BME280;36745;48.544;8.918;2022-07-29T10:19:54;97169.34;;;25.20;57.43
50774;BME280;36745;48.544;8.918;2022-07-29T10:22:55;97171.31;;;25.46;57.73
50774;BME280;36745;48.544;8.918;2022-07-29T10:25:56;97167.94;;;25.48;57.14
50774;BME280;36745;48.544;8.918;2022-07-29T10:28:57;97160.50;;;25.03;55.52
50774;BME280;36745;48.544;8.918;2022-07-29T10:32:16;97163.13;;;25.01;56.31
50774;BME280;36745;48.544;8.918;2022-07-29T10:35:33;97155.69;;;25.11;56.04
50774;BME280;36745;48.544;8.918;2022-07-29T10:38:51;97153.28;;;25.15;56.04
50774;BME280;36745;48.544;8.918;2022-07-29T10:45:04;97159.25;;;24.91;55.50
50774;BME280;36745;48.544;8.918;2022-07-29T10:48:05;97175.09;;;24.94;55.64
50774;BME280;36745;48.544;8.918;2022-07-29T10:51:08;97179.31;;;24.40;53.09
50774;BME280;36745;48.544;8.918;2022-07-29T10:54:09;97189.88;;;23.82;53.11
50774;BME280;36745;48.544;8.918;2022-07-29T10:57:29;97201.97;;;23.50;53.32
50774;BME280;36745;48.544;8.918;2022-07-29T11:00:32;97199.59;;;23.54;54.90
50774;BME280;36745;48.544;8.918;2022-07-29T11:03:47;97183.38;;;23.87;55.29
50774;BME280;36745;48.544;8.918;2022-07-29T11:13:46;97180.50;;;24.45;55.29
50774;BME280;36745;48.544;8.918;2022-07-29T11:17:05;97188.75;;;24.69;55.85
50774;BME280;36745;48.544;8.918;2022-07-29T11:20:33;97180.81;;;24.41;55.10
50774;BME280;36745;48.544;8.918;2022-07-29T11:23:33;97182.34;;;24.16;55.21
50774;BME280;36745;48.544;8.918;2022-07-29T11:26:35;97189.72;;;24.06;55.25
50774;BME280;36745;48.544;8.918;2022-07-29T11:29:51;97181.81;;;24.18;56.55
50774;BME280;36745;48.544;8.918;2022-07-29T11:32:52;97191.66;;;24.11;57.01
50774;BME280;36745;48.544;8.918;2022-07-29T11:36:25;97192.84;;;23.89;57.98
50774;BME280;36745;48.544;8.918;2022-07-29T11:39:26;97192.28;;;23.78;58.46
50774;BME280;36745;48.544;8.918;2022-07-29T11:45:45;97191.16;;;23.36;58.83
50774;BME280;36745;48.544;8.918;2022-07-29T11:48:46;97187.53;;;23.03;58.61
50774;BME280;36745;48.544;8.918;2022-07-29T11:51:56;97187.63;;;22.98;58.96
50774;BME280;36745;48.544;8.918;2022-07-29T11:54:57;97201.25;;;22.94;59.65
50774;BME280;36745;48.544;8.918;2022-07-29T11:57:59;97200.94;;;22.97;59.61
50774;BME280;36745;48.544;8.918;2022-07-29T12:01:00;97200.03;;;22.89;60.00
50774;BME280;36745;48.544;8.918;2022-07-29T12:04:05;97203.09;;;22.91;60.27
50774;BME280;36745;48.544;8.918;2022-07-29T12:07:06;97205.44;;;23.06;60.73
50774;BME280;36745;48.544;8.918;2022-07-29T12:10:07;97209.97;;;23.09;60.83
50774;BME280;36745;48.544;8.918;2022-07-29T12:13:09;97209.47;;;23.10;60.87
50774;BME280;36745;48.544;8.918;2022-07-29T12:16:10;97204.59;;;23.11;60.71
50774;BME280;36745;48.544;8.918;2022-07-29T12:19:10;97203.75;;;23.16;61.04
50774;BME280;36745;48.544;8.918;2022-07-29T12:22:10;97192.75;;;23.18;61.76
50774;BME280;36745;48.544;8.918;2022-07-29T12:25:13;97193.31;;;23.11;61.91
50774;BME280;36745;48.544;8.918;2022-07-29T12:28:15;97198.94;;;23.11;62.13
50774;BME280;36745;48.544;8.918;2022-07-29T12:31:18;97211.06;;;23.06;62.04
50774;BME280;36745;48.544;8.918;2022-07-29T12:34:20;97207.16;;;23.09;62.55
50774;BME280;36745;48.544;8.918;2022-07-29T12:37:22;97218.31;;;23.20;62.58
50774;BME280;36745;48.544;8.918;2022-07-29T12:40:22;97229.09;;;23.16;62.66
50774;BME280;36745;48.544;8.918;2022-07-29T12:43:24;97228.66;;;23.12;62.74
50774;BME280;36745;48.544;8.918;2022-07-29T12:46:24;97239.00;;;23.04;62.42
50774;BME280;36745;48.544;8.918;2022-07-29T12:49:25;97238.94;;;22.91;62.48
50774;BME280;36745;48.544;8.918;2022-07-29T12:52:34;97250.53;;;22.63;62.41
50774;BME280;36745;48.544;8.918;2022-07-29T12:55:46;97279.31;;;22.26;61.19
50774;BME280;36745;48.544;8.918;2022-07-29T12:58:51;97262.34;;;22.07;61.63
50774;BME280;36745;48.544;8.918;2022-07-29T13:01:52;97237.47;;;21.92;61.63
50774;BME280;36745;48.544;8.918;2022-07-29T13:04:59;97248.84;;;21.76;61.72
50774;BME280;36745;48.544;8.918;2022-07-29T13:08:13;97244.06;;;21.65;61.47
50774;BME280;36745;48.544;8.918;2022-07-29T13:11:40;97244.53;;;21.69;61.27
50774;BME280;36745;48.544;8.918;2022-07-29T13:14:42;97245.44;;;21.88;61.90
50774;BME280;36745;48.544;8.918;2022-07-29T13:17:43;97231.94;;;22.06;61.33
50774;BME280;36745;48.544;8.918;2022-07-29T13:20:44;97238.06;;;22.10;60.97
50774;BME280;36745;48.544;8.918;2022-07-29T13:23:44;97241.38;;;22.08;60.58
50774;BME280;36745;48.544;8.918;2022-07-29T13:26:45;97241.09;;;22.12;60.62
50774;BME280;36745;48.544;8.918;2022-07-29T13:29:45;97234.19;;;22.13;60.51
50774;BME280;36745;48.544;8.918;2022-07-29T13:32:47;97230.34;;;22.16;60.59
50774;BME280;36745;48.544;8.918;2022-07-29T13:35:47;97234.13;;;22.18;60.49
50774;BME280;36745;48.544;8.918;2022-07-29T13:38:48;97240.41;;;22.30;60.72
50774;BME280;36745;48.544;8.918;2022-07-29T13:41:48;97232.34;;;22.39;60.68
50774;BME280;36745;48.544;8.918;2022-07-29T13:44:49;97233.03;;;22.51;60.67
50774;BME280;36745;48.544;8.918;2022-07-29T13:47:51;97224.19;;;22.60;60.72
50774;BME280;36745;48.544;8.918;2022-07-29T13:50:52;97225.13;;;22.68;60.46
50774;BME280;36745;48.544;8.918;2022-07-29T13:53:52;97225.34;;;22.70;60.64
50774;BME280;36745;48.544;8.918;2022-07-29T13:56:52;97217.16;;;22.72;60.56
50774;BME280;36745;48.544;8.918;2022-07-29T13:59:53;97210.81;;;22.66;60.19
50774;BME280;36745;48.544;8.918;2022-07-29T14:02:53;97218.44;;;22.71;60.50
50774;BME280;36745;48.544;8.918;2022-07-29T14:05:54;97219.19;;;22.72;60.11
50774;BME280;36745;48.544;8.918;2022-07-29T14:08:56;97215.03;;;22.78;60.39
50774;BME280;36745;48.544;8.918;2022-07-29T14:11:56;97215.47;;;22.82;60.14
50774;BME280;36745;48.544;8.918;2022-07-29T14:14:57;97211.38;;;22.83;59.90
50774;BME280;36745;48.544;8.918;2022-07-29T14:17:57;97210.28;;;22.87;60.00
50774;BME280;36745;48.544;8.918;2022-07-29T14:20:58;97216.09;;;22.94;60.07
50774;BME280;36745;48.544;8.918;2022-07-29T14:23:58;97218.81;;;23.00;59.56
50774;BME280;36745;48.544;8.918;2022-07-29T14:26:59;97218.59;;;22.98;59.57
50774;BME280;36745;48.544;8.918;2022-07-29T14:29:59;97229.25;;;23.05;59.47
50774;BME280;36745;48.544;8.918;2022-07-29T14:33:00;97227.03;;;22.98;59.12
50774;BME280;36745;48.544;8.918;2022-07-29T14:36:00;97228.34;;;22.97;59.11
50774;BME280;36745;48.544;8.918;2022-07-29T14:39:01;97241.59;;;23.02;59.05
50774;BME280;36745;48.544;8.918;2022-07-29T14:42:01;97232.50;;;23.09;59.17
50774;BME280;36745;48.544;8.918;2022-07-29T14:45:02;97233.72;;;23.13;58.97
50774;BME280;36745;48.544;8.918;2022-07-29T14:48:02;97239.44;;;23.08;58.44
50774;BME280;36745;48.544;8.918;2022-07-29T14:51:03;97238.69;;;23.07;58.83
50774;BME280;36745;48.544;8.918;2022-07-29T14:54:03;97240.34;;;23.16;58.94
50774;BME280;36745;48.544;8.918;2022-07-29T14:57:04;97238.47;;;23.24;58.66
50774;BME280;36745;48.544;8.918;2022-07-29T15:00:05;97240.00;;;23.25;58.37
50774;BME280;36745;48.544;8.918;2022-07-29T15:03:07;97241.75;;;23.28;58.67
50774;BME280;36745;48.544;8.918;2022-07-29T15:06:10;97244.78;;;23.30;58.23
50774;BME280;36745;48.544;8.918;2022-07-29T15:09:10;97240.53;;;23.23;57.81
50774;BME280;36745;48.544;8.918;2022-07-29T15:12:11;97240.84;;;23.20;57.51
50774;BME280;36745;48.544;8.918;2022-07-29T15:15:11;97232.44;;;23.14;57.87
50774;BME280;36745;48.544;8.918;2022-07-29T15:18:12;97238.31;;;23.16;57.59
50774;BME280;36745;48.544;8.918;2022-07-29T15:21:12;97230.09;;;23.18;57.88
50774;BME280;36745;48.544;8.918;2022-07-29T15:24:13;97233.31;;;23.28;57.80
50774;BME280;36745;48.544;8.918;2022-07-29T15:27:14;97232.31;;;23.25;57.54
50774;BME280;36745;48.544;8.918;2022-07-29T15:30:14;97238.47;;;23.24;57.25
50774;BME280;36745;48.544;8.918;2022-07-29T15:33:16;97231.41;;;23.17;57.13
50774;BME280;36745;48.544;8.918;2022-07-29T15:36:17;97231.91;;;23.16;56.95
50774;BME280;36745;48.544;8.918;2022-07-29T15:39:19;97227.13;;;23.11;57.18
50774;BME280;36745;48.544;8.918;2022-07-29T15:42:20;97222.69;;;23.15;57.01
50774;BME280;36745;48.544;8.918;2022-07-29T15:45:20;97230.91;;;23.13;57.00
50774;BME280;36745;48.544;8.918;2022-07-29T15:48:20;97231.09;;;23.21;57.06
50774;BME280;36745;48.544;8.918;2022-07-29T15:51:21;97224.38;;;23.24;56.85
50774;BME280;36745;48.544;8.918;2022-07-29T15:54:21;97227.88;;;23.30;56.60
50774;BME280;36745;48.544;8.918;2022-07-29T15:57:22;97224.53;;;23.32;56.64
50774;BME280;36745;48.544;8.918;2022-07-29T16:00:23;97226.06;;;23.33;56.44
50774;BME280;36745;48.544;8.918;2022-07-29T16:03:24;97230.00;;;23.24;55.81
50774;BME280;36745;48.544;8.918;2022-07-29T16:06:24;97231.78;;;23.27;55.88
50774;BME280;36745;48.544;8.918;2022-07-29T16:09:25;97222.25;;;23.30;55.92
50774;BME280;36745;48.544;8.918;2022-07-29T16:12:25;97223.91;;;23.39;55.79
50774;BME280;36745;48.544;8.918;2022-07-29T16:15:26;97222.06;;;23.41;55.97
50774;BME280;36745;48.544;8.918;2022-07-29T16:18:26;97219.16;;;23.47;55.84
50774;BME280;36745;48.544;8.918;2022-07-29T16:21:27;97216.25;;;23.52;55.80
50774;BME280;36745;48.544;8.918;2022-07-29T16:24:27;97226.56;;;23.50;55.45
50774;BME280;36745;48.544;8.918;2022-07-29T16:27:29;97222.66;;;23.53;55.71
50774;BME280;36745;48.544;8.918;2022-07-29T16:30:29;97217.47;;;23.57;55.35